sensor_id;sensor_type;location;lat;lon;timestamp;pressure;altitude;pressure_sealevel;temperature;humidity
24610;BME280;12758;47.890;11.694;2023-04-03T00:00:13;94248.44;;;3.50;100.00
24610;BME280;12758;47.890;11.694;2023-04-03T00:02:42;94255.56;;;3.85;100.00
24610;BME280;12758;47.890;11.694;2023-04-03T00:05:11;94241.16;;;4.10;100.00
24610;BME280;12758;47.890;11.694;2023-04-03T00:07:40;94253.88;;;3.30;100.00
24610;BME280;12758;47.890;11.694;2023-04-03T00:10:08;94245.94;;;2.73;100.00
24610;BME280;12758;47.890;11.694;2023-04-03T00:12:37;94249.63;;;3.03;100.00
24610;BME280;12758;47.890;11.694;2023-04-03T00:15:07;94245.13;;;3.68;100.00
24610;BME280;12758;47.890;11.694;2023-04-03T00:17:36;94250.06;;;4.50;100.00
24610;BME280;12758;47.890;11.694;2023-04-03T00:20:06;94246.09;;;4.72;100.00
24610;BME280;12758;47.890;11.694;2023-04-03T00:22:32;94250.19;;;4.98;100.00
24610;BME280;12758;47.890;11.694;2023-04-03T00:25:01;94243.44;;;3.88;100.00
24610;BME280;12758;47.890;11.694;2023-04-03T00:27:28;94251.94;;;3.50;100.00
24610;BME280;12758;47.890;11.694;2023-04-03T00:29:57;94253.06;;;4.78;100.00
24610;BME280;12758;47.890;11.694;2023-04-03T00:32:23;94248.41;;;5.18;100.00
24610;BME280;12758;47.890;11.694;2023-04-03T00:34:52;94251.84;;;3.66;100.00
24610;BME280;12758;47.890;11.694;2023-04-03T00:37:18;94252.47;;;4.86;100.00
24610;BME280;12758;47.890;11.694;2023-04-03T00:39:47;94259.28;;;5.31;100.00
24610;BME280;12758;47.890;11.694;2023-04-03T00:42:13;94256.47;;;4.54;100.00
24610;BME280;12758;47.890;11.694;2023-04-03T00:47:43;94255.16;;;5.39;100.00
24610;BME280;12758;47.890;11.694;2023-04-03T00:50:13;94245.53;;;4.75;100.00
24610;BME280;12758;47.890;11.694;2023-04-03T00:52:39;94256.63;;;4.34;100.00
24610;BME280;12758;47.890;11.694;2023-04-03T00:55:09;94250.38;;;4.43;100.00
24610;BME280;12758;47.890;11.694;2023-04-03T00:57:38;94247.06;;;4.12;100.00
24610;BME280;12758;47.890;11.694;2023-04-03T01:00:10;94250.69;;;3.07;100.00
24610;BME280;12758;47.890;11.694;2023-04-03T01:02:37;94249.84;;;3.97;100.00
24610;BME280;12758;47.890;11.694;2023-04-03T01:05:09;94252.88;;;3.05;100.00
24610;BME280;12758;47.890;11.694;2023-04-03T01:07:36;94249.38;;;4.29;100.00
24610;BME280;12758;47.890;11.694;2023-04-03T01:10:04;94255.84;;;5.26;100.00
24610;BME280;12758;47.890;11.694;2023-04-03T01:12:32;94253.13;;;5.31;100.00
24610;BME280;12758;47.890;11.694;2023-04-03T01:15:03;94255.41;;;5.67;100.00
24610;BME280;12758;47.890;11.694;2023-04-03T01:17:34;94256.66;;;5.74;100.00
24610;BME280;12758;47.890;11.694;2023-04-03T01:20:25;94254.78;;;5.75;100.00
24610;BME280;12758;47.890;11.694;2023-04-03T01:22:59;94249.84;;;5.82;100.00
24610;BME280;12758;47.890;11.694;2023-04-03T01:25:32;94257.34;;;5.85;100.00
24610;BME280;12758;47.890;11.694;2023-04-03T01:28:02;94260.53;;;5.87;100.00
24610;BME280;12758;47.890;11.694;2023-04-03T01:30:31;94259.47;;;5.88;100.00
24610;BME280;12758;47.890;11.694;2023-04-03T01:33:02;94255.41;;;5.67;100.00
24610;BME280;12758;47.890;11.694;2023-04-03T01:35:30;94260.19;;;5.75;100.00
24610;BME280;12758;47.890;11.694;2023-04-03T01:37:59;94268.13;;;5.85;100.00
24610;BME280;12758;47.890;11.694;2023-04-03T01:40:25;94265.94;;;5.87;100.00
24610;BME280;12758;47.890;11.694;2023-04-03T01:42:54;94266.63;;;5.74;100.00
24610;BME280;12758;47.890;11.694;2023-04-03T01:45:20;94262.53;;;5.81;100.00
24610;BME280;12758;47.890;11.694;2023-04-03T01:47:49;94262.53;;;5.81;100.00
24610;BME280;12758;47.890;11.694;2023-04-03T01:50:16;94259.53;;;5.83;100.00
24610;BME280;12758;47.890;11.694;2023-04-03T01:52:45;94264.91;;;5.83;100.00
24610;BME280;12758;47.890;11.694;2023-04-03T01:55:11;94266.50;;;5.84;100.00
24610;BME280;12758;47.890;11.694;2023-04-03T01:57:40;94263.00;;;5.83;100.00
24610;BME280;12758;47.890;11.694;2023-04-03T02:00:07;94265.22;;;5.81;100.00
24610;BME280;12758;47.890;11.694;2023-04-03T02:02:36;94260.31;;;5.83;100.00
24610;BME280;12758;47.890;11.694;2023-04-03T02:05:03;94264.47;;;5.76;100.00
24610;BME280;12758;47.890;11.694;2023-04-03T02:07:32;94258.50;;;5.79;100.00
24610;BME280;12758;47.890;11.694;2023-04-03T02:09:58;94248.81;;;5.78;100.00
24610;BME280;12758;47.890;11.694;2023-04-03T02:12:27;94246.13;;;5.78;100.00
24610;BME280;12758;47.890;11.694;2023-04-03T02:14:53;94254.72;;;5.80;100.00
24610;BME280;12758;47.890;11.694;2023-04-03T02:17:22;94246.94;;;5.78;100.00
24610;BME280;12758;47.890;11.694;2023-04-03T02:19:48;94258.50;;;5.79;100.00
24610;BME280;12758;47.890;11.694;2023-04-03T02:22:18;94253.13;;;5.79;100.00
24610;BME280;12758;47.890;11.694;2023-04-03T02:24:45;94250.44;;;5.79;100.00
24610;BME280;12758;47.890;11.694;2023-04-03T02:27:14;94256.31;;;5.81;100.00
24610;BME280;12758;47.890;11.694;2023-04-03T02:29:43;94249.91;;;5.77;100.00
24610;BME280;12758;47.890;11.694;2023-04-03T02:32:09;94254.25;;;5.73;100.00
24610;BME280;12758;47.890;11.694;2023-04-03T02:34:35;94251.28;;;5.74;100.00
24610;BME280;12758;47.890;11.694;2023-04-03T02:37:04;94250.47;;;5.74;100.00
24610;BME280;12758;47.890;11.694;2023-04-03T02:39:33;94245.78;;;5.60;100.00
24610;BME280;12758;47.890;11.694;2023-04-03T02:42:00;94246.72;;;4.63;100.00
24610;BME280;12758;47.890;11.694;2023-04-03T02:44:29;94256.22;;;5.43;100.00
24610;BME280;12758;47.890;11.694;2023-04-03T02:46:55;94251.25;;;5.55;100.00
24610;BME280;12758;47.890;11.694;2023-04-03T02:49:24;94250.59;;;5.64;100.00
24610;BME280;12758;47.890;11.694;2023-04-03T02:51:50;94252.19;;;5.65;100.00
24610;BME280;12758;47.890;11.694;2023-04-03T02:54:20;94251.13;;;5.66;100.00
24610;BME280;12758;47.890;11.694;2023-04-03T02:56:46;94253.50;;;5.67;100.00
24610;BME280;12758;47.890;11.694;2023-04-03T02:59:16;94248.97;;;5.14;100.00
24610;BME280;12758;47.890;11.694;2023-04-03T03:01:42;94255.31;;;5.53;100.00
24610;BME280;12758;47.890;11.694;2023-04-03T03:04:11;94258.72;;;5.58;100.00
24610;BME280;12758;47.890;11.694;2023-04-03T03:06:37;94259.81;;;5.57;100.00
24610;BME280;12758;47.890;11.694;2023-04-03T03:09:06;94265.84;;;5.49;100.00
24610;BME280;12758;47.890;11.694;2023-04-03T03:11:33;94258.72;;;5.58;100.00
24610;BME280;12758;47.890;11.694;2023-04-03T03:14:02;94271.31;;;5.39;100.00
24610;BME280;12758;47.890;11.694;2023-04-03T03:16:28;94268.00;;;5.47;100.00
24610;BME280;12758;47.890;11.694;2023-04-03T03:18:57;94266.06;;;5.53;100.00
24610;BME280;12758;47.890;11.694;2023-04-03T03:21:23;94262.84;;;5.51;100.00
24610;BME280;12758;47.890;11.694;2023-04-03T03:23:52;94256.69;;;5.50;100.00
24610;BME280;12758;47.890;11.694;2023-04-03T03:26:18;94265.22;;;5.04;100.00
24610;BME280;12758;47.890;11.694;2023-04-03T03:28:48;94261.59;;;5.43;100.00
24610;BME280;12758;47.890;11.694;2023-04-03T03:31:16;94261.03;;;5.46;100.00
24610;BME280;12758;47.890;11.694;2023-04-03T03:33:46;94259.41;;;5.45;100.00
24610;BME280;12758;47.890;11.694;2023-04-03T03:36:12;94265.63;;;5.46;100.00
24610;BME280;12758;47.890;11.694;2023-04-03T03:38:41;94255.06;;;5.49;100.00
24610;BME280;12758;47.890;11.694;2023-04-03T03:41:10;94248.06;;;5.48;100.00
24610;BME280;12758;47.890;11.694;2023-04-03T03:43:36;94255.06;;;5.49;100.00
24610;BME280;12758;47.890;11.694;2023-04-03T03:46:02;94249.47;;;5.46;100.00
24610;BME280;12758;47.890;11.694;2023-04-03T03:48:28;94255.06;;;5.49;100.00
24610;BME280;12758;47.890;11.694;2023-04-03T03:50:57;94251.34;;;4.92;100.00
24610;BME280;12758;47.890;11.694;2023-04-03T03:53:24;94253.69;;;2.90;100.00
24610;BME280;12758;47.890;11.694;2023-04-03T03:55:53;94258.09;;;3.46;100.00
24610;BME280;12758;47.890;11.694;2023-04-03T03:58:19;94255.28;;;4.31;100.00
24610;BME280;12758;47.890;11.694;2023-04-03T04:00:48;94253.03;;;4.83;100.00
24610;BME280;12758;47.890;11.694;2023-04-03T04:03:14;94253.41;;;4.32;100.00
24610;BME280;12758;47.890;11.694;2023-04-03T04:05:43;94258.31;;;4.93;100.00
24610;BME280;12758;47.890;11.694;2023-04-03T04:08:10;94261.84;;;5.18;100.00
24610;BME280;12758;47.890;11.694;2023-04-03T04:10:39;94259.09;;;5.23;100.00
24610;BME280;12758;47.890;11.694;2023-04-03T04:13:05;94260.09;;;5.32;100.00
24610;BME280;12758;47.890;11.694;2023-04-03T04:15:34;94260.41;;;5.01;100.00
24610;BME280;12758;47.890;11.694;2023-04-03T04:18:00;94264.56;;;5.18;100.00
24610;BME280;12758;47.890;11.694;2023-04-03T04:20:29;94266.19;;;4.50;100.00
24610;BME280;12758;47.890;11.694;2023-04-03T04:22:55;94263.13;;;4.62;100.00
24610;BME280;12758;47.890;11.694;2023-04-03T04:25:25;94257.94;;;4.76;100.00
24610;BME280;12758;47.890;11.694;2023-04-03T04:27:54;94258.97;;;4.80;100.00
24610;BME280;12758;47.890;11.694;2023-04-03T04:30:23;94257.09;;;5.09;100.00
24610;BME280;12758;47.890;11.694;2023-04-03T04:32:52;94263.41;;;5.24;100.00
24610;BME280;12758;47.890;11.694;2023-04-03T04:35:18;94264.91;;;5.35;100.00
24610;BME280;12758;47.890;11.694;2023-04-03T04:37:47;94264.63;;;5.36;100.00
24610;BME280;12758;47.890;11.694;2023-04-03T04:40:13;94257.63;;;4.77;100.00
24610;BME280;12758;47.890;11.694;2023-04-03T04:42:42;94259.84;;;5.04;100.00
24610;BME280;12758;47.890;11.694;2023-04-03T04:45:09;94262.09;;;4.92;100.00
24610;BME280;12758;47.890;11.694;2023-04-03T04:47:38;94261.44;;;5.05;100.00
24610;BME280;12758;47.890;11.694;2023-04-03T04:50:05;94265.56;;;5.22;100.00
24610;BME280;12758;47.890;11.694;2023-04-03T04:52:34;94272.22;;;5.29;100.00
24610;BME280;12758;47.890;11.694;2023-04-03T04:55:00;94274.66;;;5.31;100.00
24610;BME280;12758;47.890;11.694;2023-04-03T04:57:30;94270.84;;;5.32;100.00
24610;BME280;12758;47.890;11.694;2023-04-03T04:59:56;94269.81;;;5.28;100.00
24610;BME280;12758;47.890;11.694;2023-04-03T05:02:25;94273.03;;;5.30;100.00
24610;BME280;12758;47.890;11.694;2023-04-03T05:04:51;94271.19;;;5.25;100.00
24610;BME280;12758;47.890;11.694;2023-04-03T05:07:20;94280.13;;;5.21;100.00
24610;BME280;12758;47.890;11.694;2023-04-03T05:09:46;94277.91;;;5.28;100.00
24610;BME280;12758;47.890;11.694;2023-04-03T05:12:16;94269.25;;;5.31;100.00
24610;BME280;12758;47.890;11.694;2023-04-03T05:14:42;94276.25;;;5.32;100.00
24610;BME280;12758;47.890;11.694;2023-04-03T05:17:12;94280.25;;;5.34;100.00
24610;BME280;12758;47.890;11.694;2023-04-03T05:19:38;94286.44;;;5.35;100.00
24610;BME280;12758;47.890;11.694;2023-04-03T05:22:07;94285.41;;;5.31;100.00
24610;BME280;12758;47.890;11.694;2023-04-03T05:24:36;94288.31;;;5.34;100.00
24610;BME280;12758;47.890;11.694;2023-04-03T05:27:02;94280.56;;;5.33;100.00
24610;BME280;12758;47.890;11.694;2023-04-03T05:29:28;94275.81;;;4.56;100.00
24610;BME280;12758;47.890;11.694;2023-04-03T05:31:57;94282.94;;;5.05;100.00
24610;BME280;12758;47.890;11.694;2023-04-03T05:34:27;94281.84;;;5.06;100.00
24610;BME280;12758;47.890;11.694;2023-04-03T05:36:53;94277.47;;;5.16;100.00
24610;BME280;12758;47.890;11.694;2023-04-03T05:39:22;94282.53;;;5.22;100.00
24610;BME280;12758;47.890;11.694;2023-04-03T05:41:52;94284.94;;;5.24;100.00
24610;BME280;12758;47.890;11.694;2023-04-03T05:44:21;94281.97;;;5.25;100.00
24610;BME280;12758;47.890;11.694;2023-04-03T05:46:47;94285.19;;;4.93;100.00
24610;BME280;12758;47.890;11.694;2023-04-03T05:49:16;94281.81;;;5.11;100.00
24610;BME280;12758;47.890;11.694;2023-04-03T05:51:43;94295.22;;;5.17;100.00
24610;BME280;12758;47.890;11.694;2023-04-03T05:54:16;94289.84;;;5.17;100.00
24610;BME280;12758;47.890;11.694;2023-04-03T05:56:43;94292.56;;;4.82;100.00
24610;BME280;12758;47.890;11.694;2023-04-03T05:59:12;94292.31;;;4.79;100.00
24610;BME280;12758;47.890;11.694;2023-04-03T06:01:38;94296.44;;;5.00;100.00
24610;BME280;12758;47.890;11.694;2023-04-03T06:04:07;94304.94;;;5.12;100.00
24610;BME280;12758;47.890;11.694;2023-04-03T06:06:48;94299.53;;;5.18;100.00
24610;BME280;12758;47.890;11.694;2023-04-03T06:09:20;94294.19;;;5.12;100.00
24610;BME280;12758;47.890;11.694;2023-04-03T06:11:47;94301.00;;;5.00;100.00
24610;BME280;12758;47.890;11.694;2023-04-03T06:14:16;94295.84;;;5.08;100.00
24610;BME280;12758;47.890;11.694;2023-04-03T06:16:42;94300.69;;;5.06;100.00
24610;BME280;12758;47.890;11.694;2023-04-03T06:19:12;94299.22;;;4.90;100.00
24610;BME280;12758;47.890;11.694;2023-04-03T06:21:38;94308.81;;;5.01;100.00
24610;BME280;12758;47.890;11.694;2023-04-03T06:24:09;94301.50;;;4.73;100.00
24610;BME280;12758;47.890;11.694;2023-04-03T06:26:35;94309.94;;;4.95;100.00
24610;BME280;12758;47.890;11.694;2023-04-03T06:29:04;94310.94;;;5.04;100.00
24610;BME280;12758;47.890;11.694;2023-04-03T06:31:30;94303.50;;;4.91;100.00
24610;BME280;12758;47.890;11.694;2023-04-03T06:33:56;94305.16;;;4.87;100.00
24610;BME280;12758;47.890;11.694;2023-04-03T06:36:22;94312.28;;;4.67;100.00
24610;BME280;12758;47.890;11.694;2023-04-03T06:38:48;94312.44;;;4.81;100.00
24610;BME280;12758;47.890;11.694;2023-04-03T06:41:18;94318.03;;;4.90;100.00
24610;BME280;12758;47.890;11.694;2023-04-03T06:43:47;94314.75;;;4.98;100.00
24610;BME280;12758;47.890;11.694;2023-04-03T06:46:17;94314.91;;;4.78;100.00
24610;BME280;12758;47.890;11.694;2023-04-03T06:48:44;94306.16;;;4.96;100.00
24610;BME280;12758;47.890;11.694;2023-04-03T06:51:17;94314.41;;;4.71;100.00
24610;BME280;12758;47.890;11.694;2023-04-03T06:53:44;94316.59;;;4.24;100.00
24610;BME280;12758;47.890;11.694;2023-04-03T06:56:14;94316.22;;;4.41;100.00
24610;BME280;12758;47.890;11.694;2023-04-03T06:58:41;94309.50;;;4.83;100.00
24610;BME280;12758;47.890;11.694;2023-04-03T07:01:11;94316.91;;;4.96;100.00
24610;BME280;12758;47.890;11.694;2023-04-03T07:03:37;94322.28;;;4.96;100.00
24610;BME280;12758;47.890;11.694;2023-04-03T07:06:09;94321.94;;;4.68;100.00
24610;BME280;12758;47.890;11.694;2023-04-03T07:08:36;94334.72;;;4.92;100.00
24610;BME280;12758;47.890;11.694;2023-04-03T07:11:06;94332.59;;;4.89;100.00
24610;BME280;12758;47.890;11.694;2023-04-03T07:13:32;94333.06;;;4.96;100.00
24610;BME280;12758;47.890;11.694;2023-04-03T07:16:02;94334.19;;;4.90;100.00
24610;BME280;12758;47.890;11.694;2023-04-03T07:18:29;94338.69;;;5.00;100.00
24610;BME280;12758;47.890;11.694;2023-04-03T07:20:58;94337.41;;;4.92;100.00
24610;BME280;12758;47.890;11.694;2023-04-03T07:23:24;94333.72;;;4.78;100.00
24610;BME280;12758;47.890;11.694;2023-04-03T07:25:54;94345.97;;;4.94;100.00
24610;BME280;12758;47.890;11.694;2023-04-03T07:28:20;94343.25;;;4.99;100.00
24610;BME280;12758;47.890;11.694;2023-04-03T07:30:51;94340.56;;;4.99;100.00
24610;BME280;12758;47.890;11.694;2023-04-03T07:33:21;94345.16;;;4.94;100.00
24610;BME280;12758;47.890;11.694;2023-04-03T07:35:50;94340.31;;;4.96;100.00
24610;BME280;12758;47.890;11.694;2023-04-03T07:38:16;94347.91;;;4.88;100.00
24610;BME280;12758;47.890;11.694;2023-04-03T07:40:47;94344.78;;;4.76;100.00
24610;BME280;12758;47.890;11.694;2023-04-03T07:43:13;94349.50;;;4.89;100.00
24610;BME280;12758;47.890;11.694;2023-04-03T07:45:43;94349.34;;;4.76;100.00
24610;BME280;12758;47.890;11.694;2023-04-03T07:48:09;94345.88;;;4.70;100.00
24610;BME280;12758;47.890;11.694;2023-04-03T07:50:40;94353.22;;;4.54;100.00
24610;BME280;12758;47.890;11.694;2023-04-03T07:53:10;94353.63;;;4.82;100.00
24610;BME280;12758;47.890;11.694;2023-04-03T07:55:39;94356.03;;;4.34;100.00
24610;BME280;12758;47.890;11.694;2023-04-03T07:58:12;94358.63;;;4.49;100.00
24610;BME280;12758;47.890;11.694;2023-04-03T08:00:40;94353.78;;;4.56;100.00
24610;BME280;12758;47.890;11.694;2023-04-03T08:03:10;94370.13;;;4.00;100.00
24610;BME280;12758;47.890;11.694;2023-04-03T08:05:37;94361.47;;;4.68;100.00
24610;BME280;12758;47.890;11.694;2023-04-03T08:08:08;94363.56;;;4.37;100.00
24610;BME280;12758;47.890;11.694;2023-04-03T08:10:34;94357.66;;;4.30;100.00
24610;BME280;12758;47.890;11.694;2023-04-03T08:13:03;94357.88;;;4.43;100.00
24610;BME280;12758;47.890;11.694;2023-04-03T08:15:30;94363.28;;;3.48;100.00
24610;BME280;12758;47.890;11.694;2023-04-03T08:18:00;94361.34;;;4.44;100.00
24610;BME280;12758;47.890;11.694;2023-04-03T08:20:26;94372.72;;;4.26;100.00
24610;BME280;12758;47.890;11.694;2023-04-03T08:22:55;94366.59;;;4.70;100.00
24610;BME280;12758;47.890;11.694;2023-04-03T08:25:22;94362.53;;;4.23;100.00
24610;BME280;12758;47.890;11.694;2023-04-03T08:27:51;94369.31;;;4.64;100.00
24610;BME280;12758;47.890;11.694;2023-04-03T08:30:17;94374.06;;;4.78;100.00
24610;BME280;12758;47.890;11.694;2023-04-03T08:32:47;94365.16;;;4.38;100.00
24610;BME280;12758;47.890;11.694;2023-04-03T08:35:13;94371.41;;;4.73;100.00
24610;BME280;12758;47.890;11.694;2023-04-03T08:37:42;94370.63;;;4.72;100.00
24610;BME280;12758;47.890;11.694;2023-04-03T08:40:13;94367.63;;;4.74;100.00
24610;BME280;12758;47.890;11.694;2023-04-03T08:42:48;94371.88;;;4.40;100.00
24610;BME280;12758;47.890;11.694;2023-04-03T08:45:18;94376.41;;;4.45;100.00
24610;BME280;12758;47.890;11.694;2023-04-03T08:47:52;94372.59;;;4.51;100.00
24610;BME280;12758;47.890;11.694;2023-04-03T08:50:24;94377.78;;;2.75;100.00
24610;BME280;12758;47.890;11.694;2023-04-03T08:52:56;94375.94;;;4.28;100.00
24610;BME280;12758;47.890;11.694;2023-04-03T08:55:24;94379.56;;;4.57;100.00
24610;BME280;12758;47.890;11.694;2023-04-03T08:57:59;94378.03;;;4.41;100.00
24610;BME280;12758;47.890;11.694;2023-04-03T09:00:28;94382.69;;;4.75;100.00
24610;BME280;12758;47.890;11.694;2023-04-03T09:02:59;94376.66;;;4.49;100.00
24610;BME280;12758;47.890;11.694;2023-04-03T09:05:32;94380.72;;;4.41;100.00
24610;BME280;12758;47.890;11.694;2023-04-03T09:08:11;94380.28;;;4.18;100.00
24610;BME280;12758;47.890;11.694;2023-04-03T09:10:38;94382.31;;;4.42;100.00
24610;BME280;12758;47.890;11.694;2023-04-03T09:13:12;94382.25;;;3.87;100.00
24610;BME280;12758;47.890;11.694;2023-04-03T09:15:39;94379.13;;;4.40;100.00
24610;BME280;12758;47.890;11.694;2023-04-03T09:18:13;94383.53;;;4.15;100.00
24610;BME280;12758;47.890;11.694;2023-04-03T09:20:44;94379.63;;;4.47;100.00
24610;BME280;12758;47.890;11.694;2023-04-03T09:23:22;94382.16;;;4.73;100.00
24610;BME280;12758;47.890;11.694;2023-04-03T09:25:54;94374.59;;;4.80;100.00
24610;BME280;12758;47.890;11.694;2023-04-03T09:28:24;94373.75;;;4.84;100.00
24610;BME280;12758;47.890;11.694;2023-04-03T09:30:53;94377.22;;;4.90;100.00
24610;BME280;12758;47.890;11.694;2023-04-03T09:33:19;94381.00;;;4.89;100.00
24610;BME280;12758;47.890;11.694;2023-04-03T09:35:50;94385.91;;;4.77;100.00
24610;BME280;12758;47.890;11.694;2023-04-03T09:38:20;94369.75;;;4.82;100.00
24610;BME280;12758;47.890;11.694;2023-04-03T09:41:02;94383.13;;;3.62;100.00
24610;BME280;12758;47.890;11.694;2023-04-03T09:43:31;94382.00;;;3.84;100.00
24610;BME280;12758;47.890;11.694;2023-04-03T09:46:26;94374.31;;;4.37;100.00
24610;BME280;12758;47.890;11.694;2023-04-03T09:48:56;94369.91;;;4.51;100.00
24610;BME280;12758;47.890;11.694;2023-04-03T09:51:26;94381.50;;;3.71;100.00
24610;BME280;12758;47.890;11.694;2023-04-03T09:53:53;94385.81;;;3.72;100.00
24610;BME280;12758;47.890;11.694;2023-04-03T09:56:25;94380.78;;;4.31;100.00
24610;BME280;12758;47.890;11.694;2023-04-03T09:59:06;94377.84;;;4.72;100.00
24610;BME280;12758;47.890;11.694;2023-04-03T10:01:37;94378.94;;;4.71;100.00
24610;BME280;12758;47.890;11.694;2023-04-03T10:04:07;94369.38;;;4.54;100.00
24610;BME280;12758;47.890;11.694;2023-04-03T10:06:38;94371.50;;;4.52;100.00
24610;BME280;12758;47.890;11.694;2023-04-03T10:09:17;94372.13;;;4.39;100.00
24610;BME280;12758;47.890;11.694;2023-04-03T10:12:01;94364.63;;;4.85;100.00
24610;BME280;12758;47.890;11.694;2023-04-03T10:14:28;94372.88;;;4.94;100.00
24610;BME280;12758;47.890;11.694;2023-04-03T10:17:02;94363.75;;;4.95;100.00
24610;BME280;12758;47.890;11.694;2023-04-03T10:19:34;94361.16;;;4.80;100.00
24610;BME280;12758;47.890;11.694;2023-04-03T10:22:07;94362.72;;;4.86;100.00
24610;BME280;12758;47.890;11.694;2023-04-03T10:24:44;94372.06;;;4.94;100.00
24610;BME280;12758;47.890;11.694;2023-04-03T10:27:17;94367.19;;;3.96;100.00
24610;BME280;12758;47.890;11.694;2023-04-03T10:29:48;94374.84;;;4.34;100.00
24610;BME280;12758;47.890;11.694;2023-04-03T10:32:30;94367.22;;;4.56;100.00
24610;BME280;12758;47.890;11.694;2023-04-03T10:35:05;94359.31;;;4.75;100.00
24610;BME280;12758;47.890;11.694;2023-04-03T10:37:44;94363.75;;;4.90;100.00
24610;BME280;12758;47.890;11.694;2023-04-03T10:40:19;94370.47;;;4.93;100.00
24610;BME280;12758;47.890;11.694;2023-04-03T10:42:53;94368.38;;;4.84;100.00
24610;BME280;12758;47.890;11.694;2023-04-03T10:45:24;94362.16;;;4.50;100.00
24610;BME280;12758;47.890;11.694;2023-04-03T10:48:00;94363.53;;;4.81;100.00
24610;BME280;12758;47.890;11.694;2023-04-03T10:50:36;94357.88;;;4.88;100.00
24610;BME280;12758;47.890;11.694;2023-04-03T10:53:10;94369.69;;;4.92;100.00
24610;BME280;12758;47.890;11.694;2023-04-03T10:55:43;94363.31;;;4.78;100.00
24610;BME280;12758;47.890;11.694;2023-04-03T10:58:18;94363.25;;;4.88;100.00
24610;BME280;12758;47.890;11.694;2023-04-03T11:00:49;94363.53;;;4.86;100.00
24610;BME280;12758;47.890;11.694;2023-04-03T11:03:27;94367.31;;;4.36;100.00
24610;BME280;12758;47.890;11.694;2023-04-03T11:05:55;94371.25;;;3.79;100.00
24610;BME280;12758;47.890;11.694;2023-04-03T11:08:27;94364.66;;;4.31;100.00
24610;BME280;12758;47.890;11.694;2023-04-03T11:10:56;94365.22;;;4.28;100.00
24610;BME280;12758;47.890;11.694;2023-04-03T11:13:27;94366.75;;;4.44;100.00
24610;BME280;12758;47.890;11.694;2023-04-03T11:15:58;94356.31;;;4.77;100.00
24610;BME280;12758;47.890;11.694;2023-04-03T11:18:28;94359.84;;;4.28;100.00
24610;BME280;12758;47.890;11.694;2023-04-03T11:21:00;94364.28;;;3.83;100.00
24610;BME280;12758;47.890;11.694;2023-04-03T11:23:31;94358.19;;;4.27;100.00
24610;BME280;12758;47.890;11.694;2023-04-03T11:26:06;94358.47;;;3.45;100.00
24610;BME280;12758;47.890;11.694;2023-04-03T11:28:36;94359.03;;;4.27;100.00
24610;BME280;12758;47.890;11.694;2023-04-03T11:31:09;94352.44;;;3.99;100.00
24610;BME280;12758;47.890;11.694;2023-04-03T11:33:45;94351.19;;;3.56;100.00
24610;BME280;12758;47.890;11.694;2023-04-03T11:36:19;94357.84;;;3.79;100.00
24610;BME280;12758;47.890;11.694;2023-04-03T11:38:52;94350.91;;;3.67;100.00
24610;BME280;12758;47.890;11.694;2023-04-03T11:41:25;94344.16;;;4.45;100.00
24610;BME280;12758;47.890;11.694;2023-04-03T11:43:56;94350.31;;;4.46;100.00
24610;BME280;12758;47.890;11.694;2023-04-03T11:46:29;94345.53;;;4.82;100.00
24610;BME280;12758;47.890;11.694;2023-04-03T11:55:54;94347.06;;;4.93;100.00
24610;BME280;12758;47.890;11.694;2023-04-03T11:58:25;94344.94;;;4.90;100.00
24610;BME280;12758;47.890;11.694;2023-04-03T12:00:58;94348.97;;;4.87;100.00
24610;BME280;12758;47.890;11.694;2023-04-03T12:07:00;94344.38;;;4.93;100.00
24610;BME280;12758;47.890;11.694;2023-04-03T12:12:37;94349.75;;;4.93;100.00
24610;BME280;12758;47.890;11.694;2023-04-03T12:21:18;94348.84;;;4.68;100.00
24610;BME280;12758;47.890;11.694;2023-04-03T12:24:12;94351.91;;;4.91;100.00
24610;BME280;12758;47.890;11.694;2023-04-03T12:26:51;94342.22;;;4.95;100.00
24610;BME280;12758;47.890;11.694;2023-04-03T12:29:33;94343.56;;;4.93;100.00
24610;BME280;12758;47.890;11.694;2023-04-03T12:32:06;94344.38;;;4.93;100.00
24610;BME280;12758;47.890;11.694;2023-04-03T12:34:48;94351.66;;;4.87;100.00
24610;BME280;12758;47.890;11.694;2023-04-03T12:37:22;94344.53;;;4.73;100.00
24610;BME280;12758;47.890;11.694;2023-04-03T12:40:01;94348.78;;;4.79;100.00
24610;BME280;12758;47.890;11.694;2023-04-03T12:42:43;94350.31;;;4.90;100.00
24610;BME280;12758;47.890;11.694;2023-04-03T12:45:19;94348.75;;;4.84;100.00
24610;BME280;12758;47.890;11.694;2023-04-03T12:47:45;94344.44;;;4.83;100.00
24610;BME280;12758;47.890;11.694;2023-04-03T12:50:20;94346.53;;;4.91;100.00
24610;BME280;12758;47.890;11.694;2023-04-03T12:52:54;94328.78;;;4.90;100.00
24610;BME280;12758;47.890;11.694;2023-04-03T12:55:25;94334.25;;;4.80;100.00
24610;BME280;12758;47.890;11.694;2023-04-03T12:57:51;94336.47;;;4.67;100.00
24610;BME280;12758;47.890;11.694;2023-04-03T13:00:35;94334.88;;;4.66;100.00
24610;BME280;12758;47.890;11.694;2023-04-03T13:03:05;94331.66;;;4.64;100.00
24610;BME280;12758;47.890;11.694;2023-04-03T13:05:34;94341.16;;;4.91;100.00
24610;BME280;12758;47.890;11.694;2023-04-03T13:08:08;94339.06;;;4.83;100.00
24610;BME280;12758;47.890;11.694;2023-04-03T13:10:45;94344.00;;;4.71;100.00
24610;BME280;12758;47.890;11.694;2023-04-03T13:13:16;94334.66;;;4.97;100.00
24610;BME280;12758;47.890;11.694;2023-04-03T13:15:44;94339.81;;;4.49;100.00
24610;BME280;12758;47.890;11.694;2023-04-03T13:18:25;94337.72;;;4.85;100.00
24610;BME280;12758;47.890;11.694;2023-04-03T13:20:52;94340.03;;;4.97;100.00
24610;BME280;12758;47.890;11.694;2023-04-03T13:23:21;94341.66;;;4.98;100.00
24610;BME280;12758;47.890;11.694;2023-04-03T13:25:48;94344.28;;;5.03;100.00